• Join FlightAware (Why Join?)
  • Login
  • US Flag 
04:00PM EDT


 

Airport Tracker/Info


-or-


 

Live Flight TrackerFlight Track Log ✈ EJA646 ✈ 21-Apr-2013 ✈ KILM - KBED

Flight Track Log - Related Links

Times and Time Zones

All times are in EDT time to prevent confusion due to time zone crossing. See the EJA646 flight status page for this flight to view local times or setup timezone preferences in your user account.

Time Position Orientation Groundspeed Altitude Reporting Facility
EDT Latitude Longitude Course Direction KTS MPH feet Rate Location/Type
12:26PM 34.3406 -77.8381 26° Northeast 209 241 6,000  Level Washington Center
12:27PM 34.4081 -77.7972 27° Northeast 234 269 8,400 2,400 Climbing Washington Center
12:28PM 34.4842 -77.7514 26° Northeast 265 305 10,800 2,340 Climbing Washington Center
12:29PM 34.5664 -77.7006 27° Northeast 303 349 13,100 2,280 Climbing Washington Center
12:30PM 34.6486 -77.6494 27° Northeast 318 366 15,400 2,280 Climbing Washington Center
12:31PM 34.9317 -77.4943 26° Northeast  Level FlightAware Approximate
12:31PM 34.7308 -77.5961 28° Northeast 328 377 17,700  Level Washington Center
12:32PM 34.8214 -77.5428 26° Northeast 335 386 19,600 2,040 Climbing Washington Center
12:33PM 34.9017 -77.4864 30° Northeast 351 404 21,800 2,220 Climbing Washington Center
12:34PM 34.9986 -77.4253 27° Northeast 365 420 24,100 2,100 Climbing Washington Center
12:35PM 35.0975 -77.3639 27° Northeast 379 436 26,000 1,800 Climbing Washington Center
12:36PM 35.1986 -77.3003 27° Northeast 394 453 27,700 1,620 Climbing Washington Center
12:37PM 35.3019 -77.2336 28° Northeast 406 467 29,300 1,500 Climbing Washington Center
12:38PM 35.4114 -77.1644 27° Northeast 417 480 30,800 1,500 Climbing Washington Center
12:39PM 35.5206 -77.0953 27° Northeast 427 491 32,400 1,500 Climbing Washington Center
12:40PM 35.6322 -77.0256 27° Northeast 432 497 33,900 1,260 Climbing Washington Center
12:41PM 35.7478 -76.9483 28° Northeast 432 497 35,000 540 Climbing Washington Center
12:42PM 35.8656 -76.8736 27° Northeast 448 516 35,000  Level Washington Center
12:43PM 35.9894 -76.7958 27° Northeast 467 537 35,000  Level Washington Center
12:44PM 36.1133 -76.7131 28° Northeast 488 562 35,000  Level Washington Center
12:45PM 36.2369 -76.6325 28° Northeast 498 573 35,000  Level Washington Center
12:46PM 36.3608 -76.5539 27° Northeast 493 567 35,000  Level Washington Center
12:47PM 36.4825 -76.4728 28° Northeast 493 567 35,000  Level Washington Center
12:48PM 36.6039 -76.3942 27° Northeast 493 567 35,000  Level Washington Center
12:49PM 36.7150 -76.3200 28° Northeast 493 567 35,000  Level Washington Center
12:50PM 36.8386 -76.2356 29° Northeast 498 573 35,000  Level Washington Center
12:51PM 36.9581 -76.1403 33° Northeast 503 579 35,000  Level Washington Center
12:52PM 37.0836 -76.0319 35° Northeast 512 589 35,000  Level Washington Center
12:53PM 37.1986 -75.9283 36° Northeast 512 589 35,000  Level Washington Center
12:54PM 37.3117 -75.8269 35° Northeast 507 583 35,000  Level Washington Center
12:55PM 37.4097 -75.7356 37° Northeast 497 572 35,000  Level Washington Center
12:56PM 37.5225 -75.6311 36° Northeast 497 572 35,000  Level Washington Center
12:57PM 37.6350 -75.5289 36° Northeast 497 572 35,000  Level Washington Center
12:58PM 37.7475 -75.4264 36° Northeast 497 572 35,000  Level Washington Center
12:59PM 37.8600 -75.3236 36° Northeast 497 572 35,000 660 Level Washington Center
01:00PM 37.9703 -75.2231 36° Northeast 497 572 36,400 960 Climbing Washington Center
01:01PM 38.0742 -75.1222 37° Northeast 484 557 37,000 300 Climbing Washington Center
01:02PM 38.1864 -75.0186 36° Northeast 484 557 37,000  Level Washington Center
01:03PM 38.2961 -74.9092 38° Northeast 495 570 37,000  Level Washington Center
01:04PM 38.4103 -74.8022 36° Northeast 500 575 37,000  Level Washington Center
01:05PM 38.5200 -74.7000 36° Northeast 500 575 37,000  Level Washington Center
01:06PM 38.6297 -74.5950 37° Northeast 500 575 37,000  Level Washington Center
01:07PM 38.7433 -74.4872 36° Northeast 500 575 37,000  Level Washington Center
01:08PM 38.8550 -74.3814 36° Northeast 500 575 37,000  Level Washington Center
01:09PM 38.9664 -74.2728 37° Northeast 500 575 37,000  Level Washington Center
01:10PM 39.0778 -74.1692 36° Northeast 500 575 37,000  Level Washington Center
01:11PM 39.2042 -74.1183 17° North 470 541 37,000  Level Washington Center
01:12PM 39.3394 -74.0889 10° North 477 549 37,000  Level Washington Center
01:13PM 39.4661 -74.0539 12° North 471 542 37,000  Level Washington Center
01:14PM 39.5794 -73.9681 30° Northeast 465 535 37,000 -300 Level Washington Center
01:16PM 39.7736 -73.7250 44° Northeast 507 583 36,200 -660 Descending Boston Center
01:17PM 39.8483 -73.5697 58° Northeast 507 583 35,200 -600 Descending Boston Center
01:18PM 39.9475 -73.4278 48° Northeast 489 563 35,000 -120 Descending Boston Center
01:19PM 40.0294 -73.3342 41° Northeast 476 548 35,000  Level Boston Center
01:20PM 40.1556 -73.1975 40° Northeast 476 548 35,000  Level Boston Center
01:21PM 40.2481 -73.0844 43° Northeast 486 559 35,000 -60 Level Boston Center
01:22PM 40.3486 -72.9711 41° Northeast 486 559 34,900 -900 Descending Boston Center
01:23PM 40.4406 -72.8681 40° Northeast 481 554 33,200 -2,100 Descending Boston Center
01:24PM 40.5578 -72.7269 42° Northeast 481 554 30,800 -2,280 Descending Boston Center
01:25PM 40.6561 -72.6181 40° Northeast 476 548 28,700 -2,100 Descending Boston Center
01:26PM 40.7519 -72.5142 39° Northeast 456 525 26,700 -1,920 Descending Boston Center
01:27PM 40.8436 -72.4100 41° Northeast 439 505 24,600 -2,100 Descending Boston Center
01:28PM 40.9750 -72.3275 25° Northeast 439 505 22,100 -2,160 Descending Boston Center
01:29PM 41.0872 -72.2667 22° Northeast 429 494 20,300 -1,740 Descending Boston Center
01:30PM 41.1811 -72.2111 24° Northeast 419 482 18,700 -1,500 Descending Boston Center
01:31PM 41.2956 -72.1694 15° North 400 460 17,400 -840 Descending Boston Center
01:32PM 41.3997 -72.1522 North 383 441 17,100 -180 Descending Boston Center
01:33PM 41.5017 -72.1353 North 373 429 17,100  Level Boston Center
01:34PM 41.6058 -72.1153 North 373 429 17,100 -300 Level Boston Center
01:35PM 41.7100 -72.0981 North 373 429 16,500 -1,200 Descending Boston Center
01:36PM 41.8058 -72.0836 North 362 417 14,700 -2,340 Descending Boston Center
01:37PM 41.8933 -72.0692 North 329 379 11,900 -2,700 Descending Boston Center
01:37PM 41.9164 -72.0664 North 311 358 11,200 -2,220 Descending Boston Center
01:38PM 41.9683 -72.0353 24° Northeast 284 327 9,700 -1,740 Descending Boston Center
01:39PM 42.0389 -71.9900 25° Northeast 273 314 8,300 -1,500 Descending Boston Center
01:40PM 42.0619 -71.9786 20° North 275 316 7,700 -1,620 Descending Boston Center
01:40PM 42.1056 -71.9533 23° Northeast 267 307 6,700 -1,320 Descending Boston Center
01:41PM 42.1264 -71.9392 27° Northeast 246 283 6,400 -900 Descending Boston Center
01:41PM 42.1678 -71.9164 22° Northeast 251 289 5,800 -1,020 Descending Boston Center
01:42PM 42.1886 -71.9022 27° Northeast 242 278 5,400 -720 Descending Boston Center
01:42PM 42.2197 -71.8794 28° Northeast 244 281 5,100 -240 Descending Boston Center
01:43PM 42.2842 -71.8283 30° Northeast 237 273 5,100  Level Boston Center
01:44PM 42.3317 -71.7744 40° Northeast 242 278 5,100  Level Boston Center
01:45PM 42.3792 -71.7008 49° Northeast 237 273 5,100 -60 Level Boston Center
01:46PM 42.4164 -71.6414 50° Northeast 226 260 5,000  Descending Boston Center
01:47PM 42.4333 -71.6000 61° Northeast 233 268 5,100 -600 Climbing KA90
01:48PM 42.4833 -71.5333 45° Northeast 257 296 4,200 -900 Descending KA90
01:49PM 42.5333 -71.4667 44° Northeast 245 282 3,300 -960 Descending KA90
01:50PM 42.5333 -71.3833 90° East 217 250 2,300 -660 Descending KA90
01:51PM 42.5333 -71.3000 90° East 194 223 2,000 -360 Descending KA90
01:52PM 42.5167 -71.2333 109° East 177 204 1,600 -480 Descending KA90
01:53PM 42.4833 -71.2333 180° South 150 173 1,100 -600 Descending KA90